Time;durP1;ratioP1;P1;durP2;ratioP2;P2;SDS_P1;SDS_P2;PMS_P1;PMS_P2;Temp;Humidity;BMP_temperature;BMP_pressure;BME280_temperature;BME280_humidity;BME280_pressure;Samples;Min_cycle;Max_cycle;Signal;HPM_P1;HPM_P2
2022/09/11 00:00:56;;;;;;;;;;;;;;;22.68;100.00;98922.91;5071326;28;20933;-41
2022/09/11 00:03:23;;;;;;;;;;;;;;;22.32;100.00;98911.88;5071187;28;19924;-41
2022/09/11 00:05:48;;;;;;;;;;;;;;;22.42;100.00;98928.53;5072307;28;19920;-41
2022/09/11 00:08:15;;;;;;;;;;;;;;;22.46;100.00;98927.28;5072675;28;19922;-41
2022/09/11 00:10:41;;;;;;;;;;;;;;;22.45;100.00;98925.63;5053310;28;20341;-41
2022/09/11 00:13:07;;;;;;;;;;;;;;;22.48;100.00;98933.25;5073537;28;19916;-41
2022/09/11 00:15:38;;;;;;;;;;;;;;;22.47;100.00;98931.59;5069354;28;19920;-41
2022/09/11 00:18:05;;;;;;;;;;;;;;;22.41;100.00;98933.91;5054365;28;19919;-41
2022/09/11 00:20:31;;;;;;;;;;;;;;;22.49;100.00;98936.72;5072698;28;20633;-41
2022/09/11 00:22:57;;;;;;;;;;;;;;;22.50;100.00;98931.34;5072524;28;19994;-41
2022/09/11 00:25:22;;;;;;;;;;;;;;;22.41;100.00;98937.34;5072486;28;20914;-41
2022/09/11 00:27:49;;;;;;;;;;;;;;;22.51;100.00;98937.41;5072055;28;20015;-41
2022/09/11 00:30:14;;;;;;;;;;;;;;;22.40;100.00;98932.22;5053115;28;19989;-41
2022/09/11 00:32:40;;;;;;;;;;;;;;;22.43;100.00;98940.69;5070599;28;19924;-41
2022/09/11 00:35:05;;;;;;;;;;;;;;;22.51;100.00;98935.66;5074144;28;19989;-41
2022/09/11 00:37:30;;;;;;;;;;;;;;;22.54;100.00;98931.94;5071711;28;19963;-41
2022/09/11 00:39:56;;;;;;;;;;;;;;;22.43;100.00;98939.84;5071106;28;19966;-41
2022/09/11 00:42:21;;;;;;;;;;;;;;;22.42;100.00;98946.91;5071582;28;19967;-41
2022/09/11 00:44:49;;;;;;;;;;;;;;;22.45;100.00;98938.75;5070488;28;20020;-41
2022/09/11 00:47:14;;;;;;;;;;;;;;;22.61;100.00;98938.34;5073181;28;19920;-41
2022/09/11 00:49:40;;;;;;;;;;;;;;;22.60;100.00;98933.19;5072606;28;19942;-41
2022/09/11 00:52:07;;;;;;;;;;;;;;;22.45;100.00;98936.13;5074098;28;19998;-41
2022/09/11 00:54:33;;;;;;;;;;;;;;;22.40;100.00;98935.69;5075614;28;19924;-41
2022/09/11 00:57:00;;;;;;;;;;;;;;;22.52;100.00;98944.34;5073852;28;19927;-41
2022/09/11 00:59:25;;;;;;;;;;;;;;;22.58;100.00;98940.38;5057757;28;19924;-41
2022/09/11 01:01:51;;;;;;;;;;;;;;;22.50;100.00;98935.75;5074673;28;19924;-41
2022/09/11 01:04:16;;;;;;;;;;;;;;;22.63;100.00;98932.97;5074637;28;19920;-41
2022/09/11 01:06:42;;;;;;;;;;;;;;;22.61;100.00;98938.34;5073984;28;20011;-41
2022/09/11 01:09:07;;;;;;;;;;;;;;;22.12;100.00;98950.16;5076336;28;20482;-41
2022/09/11 01:11:41;;;;;;;;;;;;;;;21.93;100.00;98953.44;5073708;28;19920;-41
2022/09/11 01:14:25;;;;;;;;;;;;;;;21.81;100.00;98955.25;5076062;28;20381;-41
2022/09/11 01:16:54;;;;;;;;;;;;;;;21.85;100.00;98956.69;5075952;28;20403;-41
2022/09/11 01:19:30;;;;;;;;;;;;;;;22.21;100.00;98945.97;5057092;28;19923;-41
2022/09/11 01:22:13;;;;;;;;;;;;;;;21.93;100.00;98948.19;5055207;28;19928;-41
2022/09/11 01:24:55;;;;;;;;;;;;;;;22.01;100.00;98950.19;5058517;28;20042;-41
2022/09/11 01:27:27;;;;;;;;;;;;;;;22.22;100.00;98952.94;5057255;28;19923;-41
2022/09/11 01:29:58;;;;;;;;;;;;;;;21.75;100.00;98953.09;5075220;28;19973;-41
2022/09/11 01:32:25;;;;;;;;;;;;;;;21.32;100.00;98964.28;5056113;28;20388;-41
2022/09/11 01:34:51;;;;;;;;;;;;;;;21.42;100.00;98954.81;5056604;28;20432;-41
2022/09/11 01:37:21;;;;;;;;;;;;;;;21.49;100.00;98963.03;5056089;28;19916;-41
2022/09/11 01:39:48;;;;;;;;;;;;;;;21.35;100.00;98964.06;5056613;28;19920;-41
2022/09/11 01:42:15;;;;;;;;;;;;;;;21.31;100.00;98973.94;5074966;28;19927;-41
2022/09/11 01:44:42;;;;;;;;;;;;;;;21.63;100.00;98972.44;5057141;28;19920;-41
2022/09/11 01:47:09;;;;;;;;;;;;;;;21.58;100.00;98974.59;5054942;28;20353;-41
2022/09/11 01:49:35;;;;;;;;;;;;;;;21.76;100.00;98977.53;5057836;28;19931;-41
2022/09/11 01:52:04;;;;;;;;;;;;;;;22.02;100.00;98968.44;5056345;28;19916;-41
2022/09/11 01:54:31;;;;;;;;;;;;;;;21.87;100.00;98980.13;5054861;28;19924;-41
2022/09/11 01:56:59;;;;;;;;;;;;;;;21.92;100.00;98983.25;5071987;28;19916;-41
2022/09/11 01:59:35;;;;;;;;;;;;;;;21.90;100.00;98991.22;5054975;28;20043;-41
2022/09/11 02:02:03;;;;;;;;;;;;;;;21.70;100.00;98995.41;5055078;28;20161;-41
2022/09/11 02:04:34;;;;;;;;;;;;;;;21.19;100.00;98992.34;5054192;28;19924;-41
2022/09/11 02:07:03;;;;;;;;;;;;;;;20.57;100.00;98990.88;5073769;28;20937;-41
2022/09/11 02:09:33;;;;;;;;;;;;;;;20.66;100.00;98992.81;5074183;28;20349;-41
2022/09/11 02:11:58;;;;;;;;;;;;;;;20.71;100.00;98995.94;5052853;28;20522;-41
2022/09/11 02:14:24;;;;;;;;;;;;;;;20.64;100.00;99000.81;5070294;28;19916;-41
2022/09/11 02:16:50;;;;;;;;;;;;;;;20.54;100.00;99005.00;5074115;28;20436;-41
2022/09/11 02:19:19;;;;;;;;;;;;;;;20.24;100.00;99008.88;5039307;28;20398;-41
2022/09/11 02:21:46;;;;;;;;;;;;;;;20.73;100.00;99007.13;5072300;28;19931;-41
2022/09/11 02:24:11;;;;;;;;;;;;;;;21.13;100.00;99005.94;5055921;28;19927;-41
2022/09/11 02:26:38;;;;;;;;;;;;;;;20.74;100.00;99000.94;5038243;28;20430;-41
2022/09/11 02:29:03;;;;;;;;;;;;;;;19.78;100.00;99017.38;5056660;28;19916;-41
2022/09/11 02:31:29;;;;;;;;;;;;;;;20.39;100.00;99012.19;5072826;28;19927;-41
2022/09/11 02:33:54;;;;;;;;;;;;;;;19.97;100.00;99022.13;5055730;28;20081;-41
2022/09/11 02:36:34;;;;;;;;;;;;;;;19.77;100.00;99025.31;5071183;28;20077;-41
2022/09/11 02:39:14;;;;;;;;;;;;;;;19.96;100.00;99022.25;5072539;28;20842;-41
2022/09/11 02:41:40;;;;;;;;;;;;;;;20.26;100.00;99025.31;5073155;28;19924;-41
2022/09/11 02:44:13;;;;;;;;;;;;;;;21.23;100.00;99023.47;5072047;28;19927;-41
2022/09/11 02:46:44;;;;;;;;;;;;;;;20.87;100.00;99022.66;5072922;28;19936;-41
2022/09/11 02:49:32;;;;;;;;;;;;;;;20.64;100.00;99020.88;5073818;28;19950;-41
2022/09/11 02:52:01;;;;;;;;;;;;;;;20.45;100.00;99021.34;5072450;28;19924;-41
2022/09/11 02:54:34;;;;;;;;;;;;;;;20.81;100.00;99030.13;5070718;28;20028;-41
2022/09/11 02:57:01;;;;;;;;;;;;;;;20.78;100.00;99027.75;5053036;28;19943;-41
2022/09/11 02:59:30;;;;;;;;;;;;;;;20.66;100.00;99019.84;5072944;28;19916;-41
2022/09/11 03:01:58;;;;;;;;;;;;;;;20.86;100.00;99028.81;5054622;28;20861;-41
2022/09/11 03:04:23;;;;;;;;;;;;;;;20.83;100.00;99021.22;5071465;28;19919;-41
2022/09/11 03:06:51;;;;;;;;;;;;;;;21.00;100.00;99024.34;5071923;28;20603;-41
2022/09/11 03:09:16;;;;;;;;;;;;;;;21.26;100.00;99025.84;5073840;28;20048;-41
2022/09/11 03:11:42;;;;;;;;;;;;;;;21.29;100.00;99022.97;5039881;28;19921;-41
2022/09/11 03:14:07;;;;;;;;;;;;;;;21.51;100.00;99018.78;5072058;28;19926;-41
2022/09/11 03:16:32;;;;;;;;;;;;;;;21.79;100.00;99019.25;5072307;28;19974;-41
2022/09/11 03:18:58;;;;;;;;;;;;;;;22.11;100.00;99025.41;5074271;28;19923;-41
2022/09/11 03:21:23;;;;;;;;;;;;;;;22.25;100.00;99026.97;5073309;28;20027;-41
2022/09/11 03:23:48;;;;;;;;;;;;;;;21.74;100.00;99029.28;5073420;28;20014;-41
2022/09/11 03:26:16;;;;;;;;;;;;;;;21.05;100.00;99025.69;5073434;28;20759;-41
2022/09/11 03:28:42;;;;;;;;;;;;;;;21.11;100.00;99029.63;5073390;28;20452;-41
2022/09/11 03:31:08;;;;;;;;;;;;;;;20.98;100.00;99037.56;5073389;28;19916;-41
2022/09/11 03:33:33;;;;;;;;;;;;;;;21.07;100.00;99029.03;5054621;28;19923;-41
2022/09/11 03:35:59;;;;;;;;;;;;;;;21.27;100.00;99040.59;5073071;28;20090;-41
2022/09/11 03:38:24;;;;;;;;;;;;;;;20.72;100.00;99043.88;5073217;28;19943;-41
2022/09/11 03:40:49;;;;;;;;;;;;;;;20.50;100.00;99040.16;5071979;28;19974;-41
2022/09/11 03:43:18;;;;;;;;;;;;;;;20.79;100.00;99045.09;5053925;28;19984;-41
2022/09/11 03:45:43;;;;;;;;;;;;;;;20.66;100.00;99045.16;5068809;28;19920;-41
2022/09/11 03:48:08;;;;;;;;;;;;;;;21.24;100.00;99046.09;5073033;28;19920;-41
2022/09/11 03:50:34;;;;;;;;;;;;;;;21.26;100.00;99038.94;5072766;28;19968;-41
2022/09/11 03:52:59;;;;;;;;;;;;;;;21.23;100.00;99039.19;5071960;28;20675;-41
2022/09/11 03:55:24;;;;;;;;;;;;;;;21.38;100.00;99042.41;5051213;28;20304;-41
2022/09/11 03:57:50;;;;;;;;;;;;;;;20.60;100.00;99045.63;5069729;28;19927;-41
2022/09/11 04:00:15;;;;;;;;;;;;;;;20.56;100.00;99046.75;5070248;28;19931;-41
2022/09/11 04:02:40;;;;;;;;;;;;;;;20.70;100.00;99056.25;5072046;28;19989;-41
2022/09/11 04:05:06;;;;;;;;;;;;;;;20.54;100.00;99052.09;5070889;28;19920;-41
2022/09/11 04:07:32;;;;;;;;;;;;;;;19.82;100.00;99065.88;5070669;28;20640;-41
2022/09/11 04:09:57;;;;;;;;;;;;;;;20.36;100.00;99062.09;5073064;28;19955;-41
2022/09/11 04:12:23;;;;;;;;;;;;;;;20.49;100.00;99059.44;5071746;28;20433;-41
2022/09/11 04:14:49;;;;;;;;;;;;;;;20.05;100.00;99061.66;5071559;28;20693;-41
2022/09/11 04:17:14;;;;;;;;;;;;;;;19.17;100.00;99073.75;5069230;28;19916;-41
2022/09/11 04:19:39;;;;;;;;;;;;;;;20.12;100.00;99079.53;5073442;28;19926;-41
2022/09/11 04:22:05;;;;;;;;;;;;;;;20.81;100.00;99066.78;5071639;28;20893;-41
2022/09/11 04:24:30;;;;;;;;;;;;;;;20.35;100.00;99067.44;5074008;28;20888;-41
2022/09/11 04:26:55;;;;;;;;;;;;;;;20.29;100.00;99068.69;5074989;28;20002;-41
2022/09/11 04:29:21;;;;;;;;;;;;;;;20.52;100.00;99063.63;5077038;28;20420;-41
2022/09/11 04:31:46;;;;;;;;;;;;;;;20.91;100.00;99064.31;5077143;28;19924;-41
2022/09/11 04:34:12;;;;;;;;;;;;;;;21.15;100.00;99054.63;5068435;28;19920;-41
2022/09/11 04:36:37;;;;;;;;;;;;;;;21.22;100.00;99052.38;5073114;28;20773;-41
2022/09/11 04:39:02;;;;;;;;;;;;;;;21.03;100.00;99059.00;5075676;28;20369;-41
2022/09/11 04:41:27;;;;;;;;;;;;;;;21.12;100.00;99052.25;5057737;28;20423;-41
2022/09/11 04:43:56;;;;;;;;;;;;;;;21.24;100.00;99055.72;5075028;28;19997;-41
2022/09/11 04:46:23;;;;;;;;;;;;;;;20.97;100.00;99066.47;5071878;28;19920;-41
2022/09/11 04:48:50;;;;;;;;;;;;;;;20.93;100.00;99065.03;5076029;28;19916;-41
2022/09/11 04:51:25;;;;;;;;;;;;;;;20.74;100.00;99073.41;5055216;28;20656;-41
2022/09/11 04:53:51;;;;;;;;;;;;;;;20.85;100.00;99069.03;5075325;28;19923;-41
2022/09/11 04:56:16;;;;;;;;;;;;;;;21.42;100.00;99069.25;5074130;28;19920;-41
2022/09/11 04:58:42;;;;;;;;;;;;;;;21.24;100.00;99067.03;5074003;28;20039;-41
2022/09/11 05:01:07;;;;;;;;;;;;;;;21.07;100.00;99077.91;5075253;28;19924;-41
2022/09/11 05:03:33;;;;;;;;;;;;;;;21.31;100.00;99072.66;5073955;28;20005;-41
2022/09/11 05:06:01;;;;;;;;;;;;;;;21.11;100.00;99087.22;5073734;28;19919;-41
2022/09/11 05:08:27;;;;;;;;;;;;;;;20.98;100.00;99078.59;5074770;28;19919;-41
2022/09/11 05:10:52;;;;;;;;;;;;;;;21.53;100.00;99085.00;5076436;28;19920;-41
2022/09/11 05:13:18;;;;;;;;;;;;;;;21.75;100.00;99085.97;5063930;28;20037;-41
2022/09/11 05:15:43;;;;;;;;;;;;;;;21.19;100.00;99090.13;5047148;28;19924;-41
2022/09/11 05:18:09;;;;;;;;;;;;;;;20.82;100.00;99085.00;5071569;28;19926;-41
2022/09/11 05:20:34;;;;;;;;;;;;;;;20.99;100.00;99094.22;5066991;28;20805;-41
2022/09/11 05:22:59;;;;;;;;;;;;;;;20.73;100.00;99098.72;5073513;28;19942;-41
2022/09/11 05:25:25;;;;;;;;;;;;;;;20.76;100.00;99090.66;5064589;28;20392;-41
2022/09/11 05:27:50;;;;;;;;;;;;;;;21.07;100.00;99101.50;5071485;28;20359;-44
2022/09/11 05:30:15;;;;;;;;;;;;;;;21.37;100.00;99108.00;5074484;28;20478;-41
2022/09/11 05:32:41;;;;;;;;;;;;;;;21.08;100.00;99109.25;5056961;28;20004;-41
2022/09/11 05:35:06;;;;;;;;;;;;;;;20.57;100.00;99108.63;5070416;28;20007;-41
2022/09/11 05:37:31;;;;;;;;;;;;;;;20.62;100.00;99106.53;5072130;28;20118;-41
2022/09/11 05:39:58;;;;;;;;;;;;;;;20.14;100.00;99122.06;5074979;28;19920;-41
2022/09/11 05:42:23;;;;;;;;;;;;;;;20.47;100.00;99122.31;5075235;28;19935;-41
2022/09/11 05:44:48;;;;;;;;;;;;;;;20.89;100.00;99122.84;5073641;28;19920;-41
2022/09/11 05:47:13;;;;;;;;;;;;;;;21.16;100.00;99120.94;5073002;28;19988;-41
2022/09/11 05:49:39;;;;;;;;;;;;;;;21.00;100.00;99126.47;5052440;28;19960;-42
2022/09/11 05:52:04;;;;;;;;;;;;;;;21.38;100.00;99125.41;5071211;28;19927;-41
2022/09/11 05:54:29;;;;;;;;;;;;;;;21.56;100.00;99124.06;5056836;28;19968;-41
2022/09/11 05:56:54;;;;;;;;;;;;;;;20.98;100.00;99131.81;5070529;28;20389;-41
2022/09/11 05:59:20;;;;;;;;;;;;;;;21.20;100.00;99133.69;5071231;28;20349;-41
2022/09/11 06:01:46;;;;;;;;;;;;;;;20.96;100.00;99131.09;5071041;28;20445;-41
2022/09/11 06:04:11;;;;;;;;;;;;;;;21.29;100.00;99138.25;5071086;28;20017;-41
2022/09/11 06:06:36;;;;;;;;;;;;;;;20.83;100.00;99139.00;5071604;28;20006;-41
2022/09/11 06:09:02;;;;;;;;;;;;;;;21.15;100.00;99146.28;5075444;28;19916;-41
2022/09/11 06:11:28;;;;;;;;;;;;;;;21.05;100.00;99142.66;5074245;28;20438;-41
2022/09/11 06:13:53;;;;;;;;;;;;;;;20.92;100.00;99149.75;5075592;28;19916;-41
2022/09/11 06:16:19;;;;;;;;;;;;;;;20.77;100.00;99151.69;5055507;28;19916;-41
2022/09/11 06:18:47;;;;;;;;;;;;;;;21.53;100.00;99155.75;5055024;28;20444;-41
2022/09/11 06:21:14;;;;;;;;;;;;;;;21.98;100.00;99149.75;5074816;28;19943;-42
2022/09/11 06:23:39;;;;;;;;;;;;;;;21.98;100.00;99155.00;5071899;28;19920;-42
2022/09/11 06:26:05;;;;;;;;;;;;;;;21.25;100.00;99162.97;5053990;28;20505;-41
2022/09/11 06:28:30;;;;;;;;;;;;;;;21.20;100.00;99162.50;5072185;28;19927;-41
2022/09/11 06:30:56;;;;;;;;;;;;;;;21.49;100.00;99159.56;5075979;28;19916;-41
2022/09/11 06:33:22;;;;;;;;;;;;;;;21.64;100.00;99168.84;5072537;28;19920;-41
2022/09/11 06:36:00;;;;;;;;;;;;;;;21.66;100.00;99166.13;5074909;28;19916;-41
2022/09/11 06:38:25;;;;;;;;;;;;;;;21.34;100.00;99171.97;5054862;28;20297;-41
2022/09/11 06:40:51;;;;;;;;;;;;;;;21.71;100.00;99170.09;5073325;28;19945;-41
2022/09/11 06:43:16;;;;;;;;;;;;;;;22.07;100.00;99167.41;5072780;28;19920;-41
2022/09/11 06:45:42;;;;;;;;;;;;;;;21.98;100.00;99165.47;5073347;28;20419;-42
2022/09/11 06:48:07;;;;;;;;;;;;;;;22.51;100.00;99169.22;5072876;28;19995;-41
2022/09/11 06:50:39;;;;;;;;;;;;;;;21.58;100.00;99171.97;5073557;28;19965;-41
2022/09/11 06:53:05;;;;;;;;;;;;;;;21.83;100.00;99176.19;5073669;28;19916;-41
2022/09/11 06:55:30;;;;;;;;;;;;;;;22.49;100.00;99165.88;5072891;28;20733;-41
2022/09/11 06:57:56;;;;;;;;;;;;;;;21.95;100.00;99173.59;5071117;28;19951;-41
2022/09/11 07:00:21;;;;;;;;;;;;;;;21.59;100.00;99181.47;5071752;28;19955;-41
2022/09/11 07:02:46;;;;;;;;;;;;;;;21.60;100.00;99185.78;5072816;28;19995;-41
2022/09/11 07:05:12;;;;;;;;;;;;;;;21.34;100.00;99177.19;5072865;28;20010;-41
2022/09/11 07:07:38;;;;;;;;;;;;;;;20.53;100.00;99190.88;5072940;28;19926;-41
2022/09/11 07:10:04;;;;;;;;;;;;;;;21.35;100.00;99191.13;5054035;28;20281;-41
2022/09/11 07:12:30;;;;;;;;;;;;;;;20.87;100.00;99192.81;5057335;28;19921;-41
2022/09/11 07:14:56;;;;;;;;;;;;;;;20.40;100.00;99201.34;5073410;28;19931;-41
2022/09/11 07:17:21;;;;;;;;;;;;;;;20.05;100.00;99202.84;5054963;28;20462;-41
2022/09/11 07:19:46;;;;;;;;;;;;;;;20.48;100.00;99207.72;5072735;28;19927;-41
2022/09/11 07:22:13;;;;;;;;;;;;;;;20.88;100.00;99211.97;5073477;28;19929;-40
2022/09/11 07:24:38;;;;;;;;;;;;;;;21.66;100.00;99198.41;5038774;28;19916;-40
2022/09/11 07:27:04;;;;;;;;;;;;;;;20.95;100.00;99207.97;5071758;28;19969;-40
2022/09/11 07:29:30;;;;;;;;;;;;;;;20.68;100.00;99203.72;5071438;28;19923;-40
2022/09/11 07:31:56;;;;;;;;;;;;;;;20.33;100.00;99211.41;5074461;28;20857;-40
2022/09/11 07:34:21;;;;;;;;;;;;;;;20.39;100.00;99211.00;5072300;28;20018;-41
2022/09/11 07:36:50;;;;;;;;;;;;;;;20.72;100.00;99212.22;5074111;28;19916;-40
2022/09/11 07:39:15;;;;;;;;;;;;;;;20.11;100.00;99216.44;5054688;28;20017;-40
2022/09/11 07:41:41;;;;;;;;;;;;;;;20.28;100.00;99223.97;5073679;28;20018;-40
2022/09/11 07:44:06;;;;;;;;;;;;;;;20.03;100.00;99220.41;5072605;28;19922;-40
2022/09/11 07:46:31;;;;;;;;;;;;;;;20.03;100.00;99225.63;5071357;28;19994;-40
2022/09/11 07:48:57;;;;;;;;;;;;;;;20.67;100.00;99230.84;5069763;28;19924;-40
2022/09/11 07:51:22;;;;;;;;;;;;;;;20.85;100.00;99227.91;5070358;28;19915;-41
2022/09/11 07:53:49;;;;;;;;;;;;;;;21.05;100.00;99229.06;5070931;28;19968;-40
2022/09/11 07:56:18;;;;;;;;;;;;;;;20.93;100.00;99230.78;5070576;28;20572;-40
2022/09/11 07:58:44;;;;;;;;;;;;;;;21.64;100.00;99225.69;5071989;28;19931;-40
2022/09/11 08:01:11;;;;;;;;;;;;;;;20.27;100.00;99225.75;5072308;28;19959;-40
2022/09/11 08:03:36;;;;;;;;;;;;;;;21.11;100.00;99231.25;5073906;28;19920;-40
2022/09/11 08:06:06;;;;;;;;;;;;;;;21.29;100.00;99226.47;5071667;28;19916;-40
2022/09/11 08:08:32;;;;;;;;;;;;;;;21.33;100.00;99229.72;5072906;28;19920;-40
2022/09/11 08:11:01;;;;;;;;;;;;;;;21.60;100.00;99225.09;5053433;28;19916;-40
2022/09/11 08:13:26;;;;;;;;;;;;;;;21.79;100.00;99228.97;5073475;28;19981;-40
2022/09/11 08:15:51;;;;;;;;;;;;;;;21.76;100.00;99223.94;5069393;28;19920;-40
2022/09/11 08:18:17;;;;;;;;;;;;;;;21.57;100.00;99230.56;5072764;28;19958;-40
2022/09/11 08:20:42;;;;;;;;;;;;;;;21.78;100.00;99233.38;5072029;28;19920;-40
2022/09/11 08:23:08;;;;;;;;;;;;;;;20.89;100.00;99239.81;5072159;28;19924;-40
2022/09/11 08:25:34;;;;;;;;;;;;;;;21.12;100.00;99240.81;5068538;28;20289;-40
2022/09/11 08:28:00;;;;;;;;;;;;;;;21.07;100.00;99242.91;5063247;28;19920;-40
2022/09/11 08:30:25;;;;;;;;;;;;;;;20.80;100.00;99254.41;5070635;28;19924;-40
2022/09/11 08:32:50;;;;;;;;;;;;;;;20.87;100.00;99246.94;5071584;28;20289;-40
2022/09/11 08:35:16;;;;;;;;;;;;;;;21.31;100.00;99254.22;5070860;28;20568;-41
2022/09/11 08:37:42;;;;;;;;;;;;;;;21.68;100.00;99248.94;5070764;28;20147;-41
2022/09/11 08:40:09;;;;;;;;;;;;;;;21.59;100.00;99260.09;5072341;28;19920;-41
2022/09/11 08:42:34;;;;;;;;;;;;;;;21.83;100.00;99261.88;5053267;28;19924;-41
2022/09/11 08:44:59;;;;;;;;;;;;;;;21.28;100.00;99266.72;5072528;28;20396;-40
2022/09/11 08:47:25;;;;;;;;;;;;;;;21.11;100.00;99265.31;5069905;28;19974;-41
2022/09/11 08:49:52;;;;;;;;;;;;;;;21.39;100.00;99260.69;5071039;28;19955;-41
2022/09/11 08:52:18;;;;;;;;;;;;;;;20.99;100.00;99276.66;5052346;28;20665;-40
2022/09/11 08:54:44;;;;;;;;;;;;;;;21.11;100.00;99281.03;5053526;28;19920;-40
2022/09/11 08:57:18;;;;;;;;;;;;;;;21.48;100.00;99273.16;5071088;28;19916;-41
2022/09/11 08:59:48;;;;;;;;;;;;;;;21.00;100.00;99280.94;5071408;28;19916;-40
2022/09/11 09:02:18;;;;;;;;;;;;;;;20.70;100.00;99283.94;5071655;28;19981;-41
2022/09/11 09:04:49;;;;;;;;;;;;;;;21.38;100.00;99282.63;5068373;28;19926;-41
2022/09/11 09:07:16;;;;;;;;;;;;;;;20.89;100.00;99282.53;5050610;28;20306;-40
2022/09/11 09:09:41;;;;;;;;;;;;;;;20.96;100.00;99287.34;5070575;28;19920;-40
2022/09/11 09:12:14;;;;;;;;;;;;;;;20.87;100.00;99288.84;5073779;28;19927;-41
2022/09/11 09:15:02;;;;;;;;;;;;;;;20.35;100.00;99288.00;5075615;28;19923;-40
2022/09/11 09:17:36;;;;;;;;;;;;;;;20.85;100.00;99286.31;5074596;28;20007;-40
2022/09/11 09:20:08;;;;;;;;;;;;;;;20.88;100.00;99291.31;5075085;28;20339;-40
2022/09/11 09:22:33;;;;;;;;;;;;;;;20.84;100.00;99295.09;5057000;28;20380;-41
2022/09/11 09:24:59;;;;;;;;;;;;;;;20.78;100.00;99299.94;5075071;28;19919;-40
2022/09/11 09:27:27;;;;;;;;;;;;;;;20.58;100.00;99293.47;5056003;28;20856;-40
2022/09/11 09:29:54;;;;;;;;;;;;;;;21.27;100.00;99302.53;5074740;28;19955;-41
2022/09/11 09:32:24;;;;;;;;;;;;;;;21.40;100.00;99299.06;5073851;28;19920;-40
2022/09/11 09:34:50;;;;;;;;;;;;;;;21.28;100.00;99296.38;5057524;28;19916;-41
2022/09/11 09:37:16;;;;;;;;;;;;;;;21.58;100.00;99303.00;5056181;28;19978;-40
2022/09/11 09:39:42;;;;;;;;;;;;;;;21.43;100.00;99301.47;5056552;28;19912;-41
2022/09/11 09:42:19;;;;;;;;;;;;;;;20.91;100.00;99313.00;5073956;28;19924;-40
2022/09/11 09:45:03;;;;;;;;;;;;;;;20.84;100.00;99312.59;5056045;28;20316;-40
2022/09/11 09:47:28;;;;;;;;;;;;;;;20.34;100.00;99315.06;5065028;28;19990;-41
2022/09/11 09:49:55;;;;;;;;;;;;;;;20.56;100.00;99318.88;5073845;28;20258;-40
2022/09/11 09:52:23;;;;;;;;;;;;;;;21.28;100.00;99314.72;5053773;28;19928;-41
2022/09/11 09:54:59;;;;;;;;;;;;;;;22.20;100.00;99306.34;5072125;28;19993;-40
2022/09/11 09:57:25;;;;;;;;;;;;;;;21.29;100.00;99315.53;5072242;28;19927;-41
2022/09/11 10:00:10;;;;;;;;;;;;;;;21.01;100.00;99320.13;5055249;28;19932;-41
2022/09/11 10:02:38;;;;;;;;;;;;;;;20.45;100.00;99325.66;5074214;28;21033;-41
2022/09/11 10:05:22;;;;;;;;;;;;;;;21.01;100.00;99325.34;5074869;28;19962;-41
2022/09/11 10:07:49;;;;;;;;;;;;;;;21.40;100.00;99327.88;5072831;28;19922;-41
2022/09/11 10:10:25;;;;;;;;;;;;;;;21.35;100.00;99325.59;5073874;28;20419;-40
2022/09/11 10:12:50;;;;;;;;;;;;;;;21.63;100.00;99324.47;5055225;28;19982;-40
2022/09/11 10:15:17;;;;;;;;;;;;;;;21.65;100.00;99327.81;5056199;28;19916;-41
2022/09/11 10:17:42;;;;;;;;;;;;;;;21.45;100.00;99326.63;5043255;28;19920;-41
2022/09/11 10:20:28;;;;;;;;;;;;;;;22.13;100.00;99327.78;5074460;28;20390;-41
2022/09/11 10:22:54;;;;;;;;;;;;;;;22.02;100.00;99326.91;5071716;28;19924;-41
2022/09/11 10:25:25;;;;;;;;;;;;;;;22.02;100.00;99332.97;5056467;28;19924;-41
2022/09/11 10:27:55;;;;;;;;;;;;;;;21.38;100.00;99342.88;5072701;28;20007;-40
2022/09/11 10:30:27;;;;;;;;;;;;;;;21.70;100.00;99341.41;5056181;28;19963;-41
2022/09/11 10:32:54;;;;;;;;;;;;;;;21.92;100.00;99335.44;5055273;28;20315;-41
2022/09/11 10:35:20;;;;;;;;;;;;;;;22.52;100.00;99322.28;5074071;28;20951;-41
2022/09/11 10:37:46;;;;;;;;;;;;;;;22.66;100.00;99334.34;5054972;28;19967;-41
2022/09/11 10:40:18;;;;;;;;;;;;;;;22.63;100.00;99334.59;5047818;28;20636;-41
2022/09/11 10:42:45;;;;;;;;;;;;;;;22.87;100.00;99327.44;5051025;28;20035;-41
2022/09/11 10:45:15;;;;;;;;;;;;;;;23.05;100.00;99319.94;5071242;28;19998;-41
2022/09/11 10:47:41;;;;;;;;;;;;;;;22.59;100.00;99323.47;5050697;28;19927;-41
2022/09/11 10:50:10;;;;;;;;;;;;;;;22.33;100.00;99333.34;5070733;28;19920;-41
2022/09/11 10:52:45;;;;;;;;;;;;;;;22.58;100.00;99327.06;5070904;28;19946;-41
2022/09/11 10:55:14;;;;;;;;;;;;;;;22.90;100.00;99332.47;5052765;28;19930;-41
2022/09/11 10:57:52;;;;;;;;;;;;;;;22.58;100.00;99332.31;5068309;28;19920;-41
2022/09/11 11:00:18;;;;;;;;;;;;;;;22.02;100.00;99346.09;5054267;28;19920;-41
2022/09/11 11:02:43;;;;;;;;;;;;;;;21.93;100.00;99344.16;5071091;28;19924;-41
2022/09/11 11:05:18;;;;;;;;;;;;;;;22.21;100.00;99342.09;5053634;28;19916;-41
2022/09/11 11:07:44;;;;;;;;;;;;;;;22.31;100.00;99351.00;5072401;28;19920;-41
2022/09/11 11:10:24;;;;;;;;;;;;;;;22.61;100.00;99347.00;5054489;28;19977;-41
2022/09/11 11:13:05;;;;;;;;;;;;;;;22.83;100.00;99354.03;5072585;28;19920;-41
2022/09/11 11:15:39;;;;;;;;;;;;;;;22.46;100.00;99343.75;5073237;28;19926;-41
2022/09/11 11:18:11;;;;;;;;;;;;;;;22.27;100.00;99349.53;5070707;28;19959;-41
2022/09/11 11:20:43;;;;;;;;;;;;;;;22.64;100.00;99341.50;5072894;28;20388;-41
2022/09/11 11:23:08;;;;;;;;;;;;;;;22.66;100.00;99339.59;5073538;28;19928;-41
2022/09/11 11:25:53;;;;;;;;;;;;;;;22.93;100.00;99342.72;5071584;28;19981;-41
2022/09/11 11:28:30;;;;;;;;;;;;;;;23.13;100.00;99345.63;5054062;28;21385;-41
2022/09/11 11:31:07;;;;;;;;;;;;;;;23.34;100.00;99346.53;5071033;28;19923;-41
2022/09/11 11:33:42;;;;;;;;;;;;;;;22.28;100.00;99356.44;5071525;28;19920;-41
2022/09/11 11:36:07;;;;;;;;;;;;;;;23.02;100.00;99350.88;5068439;28;19920;-41
2022/09/11 11:38:42;;;;;;;;;;;;;;;23.30;100.00;99345.09;5071726;28;19920;-41
2022/09/11 11:41:21;;;;;;;;;;;;;;;23.68;100.00;99340.38;5071272;28;20101;-41
2022/09/11 11:43:47;;;;;;;;;;;;;;;23.16;100.00;99342.75;5071265;28;19928;-41
2022/09/11 11:46:14;;;;;;;;;;;;;;;22.85;100.00;99339.84;5035997;28;20326;-41
2022/09/11 11:48:43;;;;;;;;;;;;;;;23.23;100.00;99343.91;5070957;28;19920;-41
2022/09/11 11:51:10;;;;;;;;;;;;;;;23.67;100.00;99341.31;5052216;28;19931;-41
2022/09/11 11:53:43;;;;;;;;;;;;;;;23.91;100.00;99343.78;5070318;28;19924;-41
2022/09/11 11:56:27;;;;;;;;;;;;;;;24.15;100.00;99340.91;5051769;28;19920;-41
2022/09/11 11:58:59;;;;;;;;;;;;;;;23.98;100.00;99350.22;5072683;28;20268;-41
2022/09/11 12:01:42;;;;;;;;;;;;;;;23.64;100.00;99331.88;5072683;28;20032;-41
2022/09/11 12:04:08;;;;;;;;;;;;;;;23.45;100.00;99342.22;5054266;28;20454;-41
2022/09/11 12:06:34;;;;;;;;;;;;;;;23.13;100.00;99348.25;5052535;28;19969;-41
2022/09/11 12:08:59;;;;;;;;;;;;;;;22.36;100.00;99361.16;5071418;28;20802;-41
2022/09/11 12:11:28;;;;;;;;;;;;;;;22.82;100.00;99350.59;5069811;28;19920;-41
2022/09/11 12:13:54;;;;;;;;;;;;;;;23.63;100.00;99350.41;5054473;28;19916;-41
2022/09/11 12:16:20;;;;;;;;;;;;;;;23.53;100.00;99355.59;5051723;28;19989;-41
2022/09/11 12:19:04;;;;;;;;;;;;;;;23.86;100.00;99349.44;5054383;28;19927;-41
2022/09/11 12:21:30;;;;;;;;;;;;;;;23.68;100.00;99359.63;5071252;28;19928;-41
2022/09/11 12:23:55;;;;;;;;;;;;;;;23.24;100.00;99365.78;5071141;28;19963;-41
2022/09/11 12:26:24;;;;;;;;;;;;;;;22.99;100.00;99372.97;5069379;28;19995;-41
2022/09/11 12:29:08;;;;;;;;;;;;;;;23.14;100.00;99371.75;5072393;28;19920;-41
2022/09/11 12:31:55;;;;;;;;;;;;;;;22.76;100.00;99372.06;5052692;28;19926;-41
2022/09/11 12:34:24;;;;;;;;;;;;;;;23.06;100.00;99368.91;5014210;28;19916;-41
2022/09/11 12:36:53;;;;;;;;;;;;;;;22.92;100.00;99372.56;5051884;28;20332;-41
2022/09/11 12:39:27;;;;;;;;;;;;;;;23.43;100.00;99359.91;5071464;28;19920;-41